Terminal Aerodrome Forecast
Issued by NWS Greer, SC

Home | Current Version | Previous Version | Text Only | Print | Product List | Glossary On
Versions: 1 2 3 4 5 6 7 8 9 10 11 12
511
FTUS42 KGSP 222322
TAFGSP
TAF
KGSP 222322Z 2300/2324 23007KT P6SM FEW050
     FM230200 22003KT P6SM FEW120
     FM231400 24006KT P6SM SCT050
     FM231700 26008KT P6SM BKN050 PROB30 2318/2324 4SM -TSRA
      OVC035CB=

USA.gov is the U.S. government's official web portal to all federal, state and local government web resources and services.